Time;durP1;ratioP1;P1;durP2;ratioP2;P2;SDS_P1;SDS_P2;PMS_P1;PMS_P2;Temp;Humidity;BMP_temperature;BMP_pressure;BME280_temperature;BME280_humidity;BME280_pressure;Samples;Min_cycle;Max_cycle;Signal;HPM_P1;HPM_P2
2022/02/09 00:05:47;;;;;;;;;36.75;33.75;;;;;9.99;71.22;102711.59;5009944;28;45566;-64
2022/02/09 00:08:14;;;;;;;;;32.00;23.75;;;;;9.96;70.78;102716.09;5013570;28;45437;-67
2022/02/09 00:10:42;;;;;;;;;29.50;27.25;;;;;9.93;71.39;102710.88;5012065;28;47054;-63
2022/02/09 00:13:30;;;;;;;;;35.25;27.25;;;;;9.90;71.17;102708.34;5008027;28;45392;-66
2022/02/09 00:16:13;;;;;;;;;36.25;30.25;;;;;9.88;71.50;102705.75;5012777;28;46464;-69
2022/02/09 00:26:51;;;;;;;;;33.75;29.25;;;;;9.84;70.67;102701.44;5013206;28;45416;-67
2022/02/09 00:35:21;;;;;;;;;35.25;25.00;;;;;9.72;71.38;102699.13;5009602;28;46019;-64
2022/02/09 01:40:11;;;;;;;;;26.25;24.25;;;;;9.35;70.89;102673.69;5017221;28;45493;-70
2022/02/09 01:56:04;;;;;;;;;26.50;20.50;;;;;9.27;71.17;102669.50;5023607;28;45384;-71
2022/02/09 01:58:31;;;;;;;;;21.75;11.75;;;;;9.23;71.09;102672.19;5022773;28;45252;-71
2022/02/09 02:00:57;;;;;;;;;23.00;19.25;;;;;9.21;71.10;102665.25;5022219;28;45328;-70
2022/02/09 02:03:22;;;;;;;;;21.50;18.75;;;;;9.18;71.08;102658.31;5022998;28;45232;-70
2022/02/09 02:05:48;;;;;;;;;21.00;18.75;;;;;9.18;70.86;102652.19;5023309;28;45175;-70
2022/02/09 02:08:15;;;;;;;;;19.75;18.00;;;;;9.16;70.81;102657.47;5023296;28;45553;-69
2022/02/09 02:10:57;;;;;;;;;21.00;18.25;;;;;9.16;70.79;102662.75;5022936;28;45209;-70
2022/02/09 02:14:20;;;;;;;;;19.00;17.75;;;;;9.15;70.65;102652.22;5014900;28;45515;-70
2022/02/09 02:19:01;;;;;;;;;30.50;19.25;;;;;9.12;70.48;102649.69;5003297;28;45511;-70
2022/02/09 02:56:45;;;;;;;;;20.50;19.75;;;;;8.87;70.80;102616.06;5022656;28;45466;-70
2022/02/09 03:09:46;;;;;;;;;24.25;20.50;;;;;8.77;70.61;102590.00;5022285;28;45423;-69
2022/02/09 03:17:07;;;;;;;;;27.50;19.00;;;;;8.74;70.57;102582.19;5001926;28;45360;-69
2022/02/09 03:19:55;;;;;;;;;29.75;22.75;;;;;8.74;70.61;102569.06;5002161;28;45517;-69
2022/02/09 03:25:56;;;;;;;;;24.00;19.75;;;;;8.71;70.42;102569.16;5002183;28;45582;-69
2022/02/09 03:47:12;;;;;;;;;22.25;19.75;;;;;8.55;70.64;102534.47;5021105;28;45258;-70
2022/02/09 03:55:20;;;;;;;;;27.00;23.75;;;;;8.54;70.51;102528.34;5021661;28;45302;-70
2022/02/09 03:57:47;;;;;;;;;24.50;20.50;;;;;8.50;70.24;102524.06;5021229;28;45324;-69
2022/02/09 04:00:24;;;;;;;;;25.75;22.00;;;;;8.51;70.07;102527.53;5020968;28;45394;-69
2022/02/09 04:02:53;;;;;;;;;24.25;21.00;;;;;8.50;70.02;102533.69;5021213;28;45296;-69
2022/02/09 04:05:19;;;;;;;;;26.50;18.00;;;;;8.49;70.27;102531.97;5021479;28;45281;-70
2022/02/09 04:07:46;;;;;;;;;26.75;22.25;;;;;8.48;70.00;102535.50;5021175;28;45400;-70
2022/02/09 04:10:18;;;;;;;;;21.75;18.00;;;;;8.47;70.01;102520.63;5021157;28;45301;-70
2022/02/09 04:12:58;;;;;;;;;24.25;19.00;;;;;8.46;69.83;102524.16;5018504;28;45391;-70
2022/02/09 04:15:41;;;;;;;;;27.50;22.25;;;;;8.47;70.04;102526.75;5001350;28;45488;-70
2022/02/09 04:18:28;;;;;;;;;25.50;21.75;;;;;8.47;70.01;102518.00;5006705;28;46368;-69
2022/02/09 04:37:30;;;;;;;;;22.50;21.75;;;;;8.39;69.60;102520.81;5021005;28;45336;-70
2022/02/09 04:40:05;;;;;;;;;17.25;11.25;;;;;8.39;69.79;102518.19;5013208;28;45348;-70
2022/02/09 04:47:52;;;;;;;;;26.50;21.25;;;;;8.35;69.79;102517.38;5019410;28;45558;-70
2022/02/09 04:50:24;;;;;;;;;23.50;18.75;;;;;8.33;69.63;102515.66;5018760;28;45335;-70
2022/02/09 04:56:01;;;;;;;;;27.75;19.25;;;;;8.31;69.77;102527.94;5038489;28;45517;-70
2022/02/09 04:59:14;;;;;;;;;25.75;20.25;;;;;8.29;69.80;102522.72;5038316;28;45276;-70
2022/02/09 05:04:12;;;;;;;;;24.00;20.50;;;;;8.28;69.37;102523.59;5020485;28;45269;-68
2022/02/09 05:18:02;;;;;;;;;21.25;13.50;;;;;8.23;69.41;102530.75;5008014;28;45376;-69
2022/02/09 05:25:44;;;;;;;;;23.75;20.00;;;;;8.21;69.24;102536.88;5020313;28;45322;-69
2022/02/09 05:30:36;;;;;;;;;30.75;22.00;;;;;8.19;69.59;102536.06;5020063;28;45154;-69
2022/02/09 05:33:01;;;;;;;;;25.25;18.75;;;;;8.18;69.50;102537.81;5020174;28;45328;-69
2022/02/09 05:35:27;;;;;;;;;38.00;26.25;;;;;8.18;69.11;102537.81;5023625;28;45434;-70
2022/02/09 05:37:55;;;;;;;;;18.75;17.25;;;;;8.16;69.54;102531.75;5023754;28;45372;-70
2022/02/09 05:40:21;;;;;;;;;31.00;21.50;;;;;8.17;69.37;102530.00;5012728;28;45309;-69
2022/02/09 05:42:47;;;;;;;;;21.50;20.00;;;;;8.16;69.66;102528.25;5013196;28;45351;-69
2022/02/09 05:45:13;;;;;;;;;28.75;19.75;;;;;8.15;69.59;102537.91;5023159;28;45374;-69
2022/02/09 05:50:34;;;;;;;;;24.75;21.00;;;;;8.14;69.68;102536.19;5023270;28;45436;-70
2022/02/09 05:58:09;;;;;;;;;25.75;22.00;;;;;8.08;69.59;102520.56;5023313;28;45399;-70
2022/02/09 06:00:35;;;;;;;;;21.25;19.50;;;;;8.08;69.90;102531.03;5022772;28;45250;-70
2022/02/09 06:03:01;;;;;;;;;19.25;18.75;;;;;8.06;69.69;102524.97;5022983;28;45321;-70
2022/02/09 06:05:27;;;;;;;;;26.00;20.50;;;;;8.05;69.69;102526.69;5022811;28;45371;-70
2022/02/09 06:07:53;;;;;;;;;30.00;19.75;;;;;8.04;69.74;102521.50;5023158;28;45431;-70
2022/02/09 06:10:25;;;;;;;;;27.25;21.75;;;;;8.04;69.78;102526.75;5020635;28;45389;-71
2022/02/09 06:13:19;;;;;;;;;33.75;25.00;;;;;8.04;69.88;102532.84;5016114;28;45650;-71
2022/02/09 06:20:58;;;;;;;;;26.00;21.25;;;;;7.96;69.98;102539.16;5023034;28;45603;-70
2022/02/09 06:23:25;;;;;;;;;26.50;21.25;;;;;7.92;69.35;102538.34;5022758;28;45482;-69
2022/02/09 06:25:50;;;;;;;;;28.75;23.25;;;;;7.91;69.84;102543.63;5022627;28;45530;-69
2022/02/09 06:28:15;;;;;;;;;23.25;18.75;;;;;7.87;69.95;102540.19;5022939;28;45312;-70
2022/02/09 06:30:41;;;;;;;;;29.00;25.50;;;;;7.86;70.00;102546.34;5022507;28;45504;-70
2022/02/09 06:33:06;;;;;;;;;34.00;21.00;;;;;7.83;69.76;102542.03;5022544;28;45434;-71
2022/02/09 06:35:33;;;;;;;;;31.25;25.25;;;;;7.81;69.96;102541.16;5022476;28;45373;-72
2022/02/09 06:38:00;;;;;;;;;12.00;6.75;;;;;7.80;70.29;102534.19;5022587;28;45440;-71
2022/02/09 06:40:26;;;;;;;;;27.75;21.50;;;;;7.81;70.19;102529.81;5011068;28;45336;-69
2022/02/09 06:42:51;;;;;;;;;29.00;21.50;;;;;7.79;70.01;102532.47;5012680;28;45954;-68
2022/02/09 06:45:23;;;;;;;;;32.00;24.50;;;;;7.80;70.00;102530.72;5019409;28;45500;-69
2022/02/09 06:47:49;;;;;;;;;35.00;25.00;;;;;7.82;70.00;102531.56;5013838;28;45324;-69
2022/02/09 06:52:47;;;;;;;;;30.50;28.50;;;;;7.82;70.02;102529.81;5014294;28;45521;-71
2022/02/09 06:55:19;;;;;;;;;35.50;29.00;;;;;7.81;69.78;102525.41;5013719;28;46549;-72
2022/02/09 07:00:15;;;;;;;;;25.50;21.00;;;;;7.81;69.82;102535.06;5006992;28;45752;-71
2022/02/09 07:02:41;;;;;;;;;24.75;21.75;;;;;7.80;69.88;102534.19;5006450;28;45214;-71
2022/02/09 07:05:08;;;;;;;;;26.50;22.00;;;;;7.80;70.01;102549.06;5010667;28;45292;-71
2022/02/09 07:07:34;;;;;;;;;33.25;24.25;;;;;7.80;69.86;102535.94;5002273;28;45415;-72
2022/02/09 07:10:00;;;;;;;;;28.50;23.75;;;;;7.77;69.88;102539.50;5005813;28;45333;-72
2022/02/09 07:12:25;;;;;;;;;30.00;27.50;;;;;7.75;69.92;102541.31;5008789;28;46248;-71
2022/02/09 07:14:53;;;;;;;;;35.50;31.25;;;;;7.74;69.79;102543.94;5013852;28;45324;-71
2022/02/09 07:17:18;;;;;;;;;40.50;38.00;;;;;7.70;70.16;102553.63;5002276;28;45394;-71
2022/02/09 07:19:51;;;;;;;;;39.50;33.25;;;;;7.69;70.19;102551.03;5007209;28;45626;-71
2022/02/09 07:22:23;;;;;;;;;36.75;30.75;;;;;7.67;70.38;102552.84;5001646;28;45415;-71
2022/02/09 07:24:50;;;;;;;;;23.75;15.50;;;;;7.65;70.53;102549.34;5014279;28;45320;-70
2022/02/09 07:27:40;;;;;;;;;39.75;36.25;;;;;7.66;70.67;102553.69;5002623;28;45392;-72
2022/02/09 07:30:09;;;;;;;;;50.50;36.50;;;;;7.67;70.83;102563.31;5018785;28;45498;-71
2022/02/09 07:32:34;;;;;;;;;56.50;43.25;;;;;7.67;70.52;102556.31;5007199;28;46369;-71
2022/02/09 07:35:00;;;;;;;;;46.25;40.00;;;;;7.68;70.60;102554.56;5018808;28;45391;-71
2022/02/09 07:37:25;;;;;;;;;41.75;38.25;;;;;7.70;70.53;102561.50;5005205;28;45518;-71
2022/02/09 07:39:50;;;;;;;;;45.25;39.25;;;;;7.71;70.85;102554.50;5003300;28;45436;-71
2022/02/09 07:42:23;;;;;;;;;51.00;38.00;;;;;7.73;70.65;102552.69;5017432;28;45429;-71
2022/02/09 07:45:03;;;;;;;;;47.00;38.75;;;;;7.74;70.90;102557.03;5013761;28;45341;-70
2022/02/09 07:52:51;;;;;;;;;48.50;40.50;;;;;7.75;70.68;102545.69;5021635;28;45542;-72
2022/02/09 07:55:16;;;;;;;;;59.00;46.25;;;;;7.75;70.67;102543.06;5013206;28;45451;-70
2022/02/09 07:57:42;;;;;;;;;87.33;63.67;;;;;7.76;70.79;102539.53;5006099;28;45400;-70
2022/02/09 08:00:09;;;;;;;;;72.67;55.00;;;;;7.78;70.63;102533.38;5020679;28;45502;-71
2022/02/09 08:02:35;;;;;;;;;68.75;48.50;;;;;7.83;70.62;102533.28;5024244;28;46431;-75
2022/02/09 08:05:00;;;;;;;;;70.00;51.00;;;;;7.84;70.68;102530.63;5009232;28;45321;-67
2022/02/09 08:07:27;;;;;;;;;70.50;48.25;;;;;7.87;70.59;102531.47;5011178;28;45529;-70
2022/02/09 08:09:56;;;;;;;;;68.33;54.33;;;;;7.90;70.65;102537.53;5005813;28;45524;-65
2022/02/09 08:21:09;;;;;;;;;62.50;47.50;;;;;8.07;70.42;102530.19;5018117;28;45242;-66
2022/02/09 08:28:22;;;;;;;;;64.00;50.25;;;;;8.22;70.29;102513.25;5018049;28;45503;-67
2022/02/09 08:33:17;;;;;;;;;54.75;43.25;;;;;8.36;70.21;102518.22;5014869;28;47985;-67
2022/02/09 08:35:45;;;;;;;;;58.00;45.75;;;;;8.43;69.82;102516.34;5012538;28;45368;-66
2022/02/09 08:38:11;;;;;;;;;60.00;47.25;;;;;8.46;69.72;102517.16;5014580;28;45245;-66
2022/02/09 08:40:36;;;;;;;;;46.00;31.50;;;;;8.53;69.68;102515.22;5014758;28;45409;-66
2022/02/09 08:43:03;;;;;;;;;50.25;40.50;;;;;8.59;69.73;102513.34;5008448;28;46021;-66
2022/02/09 08:45:29;;;;;;;;;50.00;40.75;;;;;8.65;69.58;102504.47;5004013;28;45305;-65
2022/02/09 08:47:56;;;;;;;;;56.75;43.50;;;;;8.72;69.27;102507.81;5019649;28;45340;-65
2022/02/09 08:50:22;;;;;;;;;29.50;27.00;;;;;8.77;69.13;102509.44;5018979;28;45427;-66
2022/02/09 08:52:49;;;;;;;;;58.25;44.25;;;;;8.84;69.47;102505.75;5014469;28;45274;-65
2022/02/09 08:55:15;;;;;;;;;45.75;39.25;;;;;8.89;69.30;102509.13;5014688;28;45245;-66
2022/02/09 08:57:40;;;;;;;;;55.75;41.00;;;;;8.96;69.07;102501.97;5012797;28;45431;-65
2022/02/09 09:00:19;;;;;;;;;45.75;40.50;;;;;9.06;68.86;102510.50;5020000;28;45561;-66
2022/02/09 09:02:49;;;;;;;;;37.50;35.75;;;;;9.12;68.36;102497.19;5018523;28;45714;-65
2022/02/09 09:05:22;;;;;;;;;41.00;36.25;;;;;9.16;67.96;102498.84;5012238;28;45380;-66
2022/02/09 09:07:53;;;;;;;;;46.75;36.75;;;;;9.16;67.91;102490.94;5002401;28;45249;-66
2022/02/09 09:10:28;;;;;;;;;43.50;36.00;;;;;9.19;68.04;102489.13;5014589;28;45328;-66
2022/02/09 09:17:02;;;;;;;;;36.75;31.00;;;;;9.30;67.33;102478.31;5003729;28;45438;-66
2022/02/09 09:42:17;;;;;;;;;41.50;35.50;;;;;9.68;65.40;102456.25;5016221;28;45439;-67
2022/02/09 10:03:17;;;;;;;;;42.25;35.50;;;;;10.11;64.02;102452.38;5019940;28;45470;-67
2022/02/09 10:14:09;;;;;;;;;41.50;35.25;;;;;10.17;63.58;102451.31;5022855;28;45382;-67
2022/02/09 10:34:10;;;;;;;;;44.75;33.75;;;;;10.75;62.17;102455.69;5014527;28;46503;-69
2022/02/09 10:36:49;;;;;;;;;43.50;35.75;;;;;10.79;61.74;102452.00;5008887;28;45309;-67
2022/02/09 10:39:21;;;;;;;;;45.00;36.00;;;;;10.83;62.02;102450.16;5015615;28;45323;-67
2022/02/09 10:42:01;;;;;;;;;50.75;41.25;;;;;10.85;61.89;102449.19;5011182;28;45374;-68
2022/02/09 10:44:44;;;;;;;;;31.25;24.25;;;;;10.90;61.12;102452.53;5014383;28;45281;-68
2022/02/09 10:47:27;;;;;;;;;43.00;32.00;;;;;10.95;61.41;102449.72;5021686;28;45507;-69
2022/02/09 10:50:37;;;;;;;;;40.75;33.75;;;;;11.00;60.84;102446.94;5018859;28;45317;-68
2022/02/09 10:53:05;;;;;;;;;41.75;36.00;;;;;11.06;61.14;102444.09;5021827;28;46106;-68
2022/02/09 10:55:31;;;;;;;;;31.75;28.50;;;;;11.13;61.38;102425.34;5021972;28;45529;-70
2022/02/09 10:57:56;;;;;;;;;48.25;38.00;;;;;11.18;60.65;102427.84;5021550;28;45507;-70
2022/02/09 11:00:24;;;;;;;;;41.75;34.25;;;;;11.23;60.75;102423.28;5019790;28;45603;-67
2022/02/09 11:02:50;;;;;;;;;66.25;49.75;;;;;11.26;60.46;102417.88;5020303;28;45332;-69
2022/02/09 11:05:19;;;;;;;;;50.75;36.50;;;;;11.33;60.73;102421.19;5021873;28;45240;-68
2022/02/09 11:07:48;;;;;;;;;51.00;40.50;;;;;11.35;60.68;102414.94;5017840;28;45502;-70
2022/02/09 11:10:15;;;;;;;;;42.00;37.25;;;;;11.39;60.33;102415.69;5021358;28;45325;-67
2022/02/09 11:12:44;;;;;;;;;45.75;37.50;;;;;11.41;60.16;102421.75;5011845;28;45608;-67
2022/02/09 11:15:11;;;;;;;;;40.00;35.00;;;;;11.45;60.47;102411.06;5016103;28;45518;-67
2022/02/09 11:17:40;;;;;;;;;34.50;29.50;;;;;11.47;59.70;102416.28;5017924;28;45404;-66
2022/02/09 11:20:09;;;;;;;;;32.25;31.25;;;;;11.50;59.58;102408.25;5010951;28;45412;-67
2022/02/09 11:22:43;;;;;;;;;43.25;34.75;;;;;11.54;59.45;102406.38;5019054;28;45379;-68
2022/02/09 11:25:27;;;;;;;;;36.00;32.25;;;;;11.57;59.44;102399.19;5020827;28;45457;-68
2022/02/09 11:28:19;;;;;;;;;39.25;32.00;;;;;11.62;58.84;102399.88;5021154;28;45422;-68
2022/02/09 11:31:10;;;;;;;;;23.00;18.75;;;;;11.66;59.22;102401.47;5020431;28;45234;-68
2022/02/09 11:34:02;;;;;;;;;40.50;32.00;;;;;11.71;58.79;102391.63;5012841;28;45494;-66
2022/02/09 11:36:40;;;;;;;;;39.25;28.75;;;;;11.75;58.68;102389.72;5017800;28;45291;-63
2022/02/09 11:39:15;;;;;;;;;36.50;33.50;;;;;11.79;58.15;102388.69;5020290;28;45553;-65
2022/02/09 11:41:58;;;;;;;;;45.75;34.75;;;;;11.85;58.36;102388.50;5014425;28;45415;-68
2022/02/09 11:50:47;;;;;;;;;49.50;33.75;;;;;11.96;57.92;102375.72;5015544;28;45433;-65
2022/02/09 12:09:50;;;;;;;;;33.25;30.50;;;;;12.06;56.50;102357.72;5007447;28;45386;-64
2022/02/09 12:12:22;;;;;;;;;33.75;29.75;;;;;12.04;56.25;102362.22;5014945;28;45522;-64
2022/02/09 12:15:10;;;;;;;;;35.25;27.75;;;;;12.10;56.36;102351.41;5007149;28;45202;-63
2022/02/09 12:17:49;;;;;;;;;33.25;29.75;;;;;12.18;56.30;102359.91;5006955;28;45290;-66
2022/02/09 12:20:25;;;;;;;;;94.67;84.33;;;;;12.26;55.88;102354.31;5017159;28;45518;-65
2022/02/09 12:23:07;;;;;;;;;85.33;76.67;;;;;12.35;55.48;102350.44;5007290;28;45323;-65
2022/02/09 12:25:48;;;;;;;;;33.50;27.75;;;;;12.38;55.74;102342.34;5016026;28;45631;-64
2022/02/09 12:28:16;;;;;;;;;27.00;22.25;;;;;12.42;55.29;102344.81;5013606;28;45342;-63
2022/02/09 12:30:42;;;;;;;;;27.75;22.75;;;;;12.41;54.96;102336.97;5006260;28;45333;-62
2022/02/09 12:33:24;;;;;;;;;34.25;28.75;;;;;12.42;54.79;102325.47;5008990;28;45525;-63
2022/02/09 12:35:51;;;;;;;;;36.00;29.00;;;;;12.45;54.66;102328.81;5000517;28;45349;-60
2022/02/09 12:38:30;;;;;;;;;35.25;25.25;;;;;12.48;54.44;102315.50;5012613;28;46274;-67
2022/02/09 12:41:19;;;;;;;;;33.00;29.75;;;;;12.56;54.57;102315.19;5000018;28;45402;-65
2022/02/09 12:43:56;;;;;;;;;27.75;24.25;;;;;12.62;54.56;102319.34;5006025;28;45361;-65
2022/02/09 12:46:26;;;;;;;;;72.00;57.00;;;;;12.67;54.51;102312.06;5008322;28;45658;-65
2022/02/09 12:48:53;;;;;;;;;27.00;23.75;;;;;12.72;54.52;102310.09;5019967;28;45239;-65
2022/02/09 12:51:23;;;;;;;;;37.00;30.00;;;;;12.75;54.18;102305.53;5025202;28;45328;-65
2022/02/09 12:53:49;;;;;;;;;37.50;34.25;;;;;12.78;54.32;102301.88;5010307;28;45863;-65
2022/02/09 12:56:48;;;;;;;;;40.25;35.25;;;;;12.83;53.98;102305.19;5019742;28;45428;-66
2022/02/09 12:59:17;;;;;;;;;36.25;32.50;;;;;12.83;53.89;102306.06;4991076;28;45998;-66
2022/02/09 13:01:48;;;;;;;;;34.25;29.00;;;;;12.87;53.91;102309.41;4999762;28;45416;-66
2022/02/09 13:04:36;;;;;;;;;46.50;37.75;;;;;12.90;53.98;102295.22;5013277;28;45263;-66
2022/02/09 13:07:12;;;;;;;;;31.25;27.25;;;;;12.91;53.97;102296.91;5020539;28;45328;-66
2022/02/09 13:09:43;;;;;;;;;48.00;34.75;;;;;12.93;54.02;102293.28;5019783;28;45444;-66
2022/02/09 13:12:09;;;;;;;;;41.00;33.00;;;;;12.97;53.64;102286.94;5022268;28;45379;-66
2022/02/09 13:14:39;;;;;;;;;32.25;29.00;;;;;12.99;53.50;102284.22;5001853;28;45441;-66
2022/02/09 13:17:15;;;;;;;;;70.33;55.00;;;;;12.99;53.70;102285.06;5000106;28;45360;-66
2022/02/09 14:52:53;;;;;;;;;28.75;24.75;;;;;13.56;52.04;102198.63;5021443;28;45375;-67
2022/02/09 14:58:10;;;;;;;;;30.00;23.50;;;;;13.56;52.11;102193.34;5014440;28;45587;-67
2022/02/09 15:00:47;;;;;;;;;24.50;22.50;;;;;13.58;51.87;102195.91;5001751;28;45387;-67
2022/02/09 15:03:26;;;;;;;;;31.75;25.50;;;;;13.58;52.25;102190.59;5009167;28;45440;-67
2022/02/09 15:23:49;;;;;;;;;30.25;26.50;;;;;13.40;52.15;102168.53;5021880;28;45387;-66
2022/02/09 15:26:17;;;;;;;;;31.00;21.25;;;;;13.41;52.39;102173.75;5021788;28;45503;-67
2022/02/09 15:28:42;;;;;;;;;30.25;21.25;;;;;13.40;52.38;102165.91;5021659;28;45244;-67
2022/02/09 15:31:22;;;;;;;;;28.75;21.50;;;;;13.43;52.35;102168.41;5021397;28;45272;-67
2022/02/09 15:33:51;;;;;;;;;30.00;25.00;;;;;13.43;52.52;102156.94;5021613;28;45459;-67
2022/02/09 15:36:26;;;;;;;;;26.25;23.00;;;;;13.42;52.46;102158.72;5021708;28;45273;-67
2022/02/09 15:38:51;;;;;;;;;27.00;23.75;;;;;13.43;52.40;102156.94;5021480;28;46702;-67
2022/02/09 15:41:31;;;;;;;;;31.00;21.25;;;;;13.40;52.17;102160.59;5003555;28;45245;-67
2022/02/09 16:05:56;;;;;;;;;26.00;22.75;;;;;13.24;53.00;102127.88;5001723;28;45325;-67
2022/02/09 16:22:22;;;;;;;;;29.00;24.75;;;;;13.02;53.72;102126.22;5009905;28;45246;-65
2022/02/09 16:46:15;;;;;;;;;25.00;19.00;;;;;12.64;54.63;102125.38;5012742;28;45421;-66
2022/02/09 16:48:47;;;;;;;;;23.50;18.25;;;;;12.58;54.59;102115.94;5005663;28;45503;-60
2022/02/09 16:51:17;;;;;;;;;20.50;18.50;;;;;12.55;54.82;102117.84;5013579;28;45379;-64
2022/02/09 16:56:28;;;;;;;;;24.75;21.00;;;;;12.46;55.11;102111.19;5010129;28;45355;-65
2022/02/09 17:15:43;;;;;;;;;27.00;17.00;;;;;12.14;55.92;102095.91;5007988;28;45984;-66
2022/02/09 17:20:53;;;;;;;;;21.00;15.00;;;;;12.07;56.22;102099.75;5007392;28;45606;-66
2022/02/09 17:23:19;;;;;;;;;22.75;18.50;;;;;12.06;56.32;102100.66;5007540;28;45342;-66
2022/02/09 17:25:45;;;;;;;;;17.00;15.00;;;;;12.02;56.24;102094.69;5008351;28;45365;-66
2022/02/09 17:28:14;;;;;;;;;18.25;15.50;;;;;12.00;56.44;102093.88;5007247;28;45459;-66
2022/02/09 17:36:23;;;;;;;;;28.25;17.50;;;;;11.93;56.92;102090.66;5012621;28;45862;-66
2022/02/09 17:55:29;;;;;;;;;16.50;16.00;;;;;11.80;57.90;102099.13;5013856;28;45509;-67
2022/02/09 17:57:54;;;;;;;;;21.50;17.00;;;;;11.78;57.80;102100.97;5010531;28;45435;-67
2022/02/09 18:00:20;;;;;;;;;18.25;15.00;;;;;11.74;58.16;102097.59;5012087;28;45491;-70
2022/02/09 18:02:51;;;;;;;;;23.00;18.00;;;;;11.74;58.25;102106.38;5010750;28;45380;-67
2022/02/09 18:05:22;;;;;;;;;20.25;15.75;;;;;11.72;58.20;102107.38;5022057;28;45494;-69
2022/02/09 18:07:54;;;;;;;;;21.25;16.25;;;;;11.71;58.31;102111.78;5011311;28;45281;-73
2022/02/09 18:29:03;;;;;;;;;22.50;18.25;;;;;11.59;59.16;102108.78;5012013;28;45214;-65
2022/02/09 18:31:56;;;;;;;;;21.75;16.25;;;;;11.58;59.10;102104.44;5008470;28;45281;-65
2022/02/09 18:40:40;;;;;;;;;15.50;14.00;;;;;11.50;59.57;102112.69;4994610;28;46206;-67
2022/02/09 19:04:03;;;;;;;;;21.00;17.25;;;;;11.27;59.77;102081.97;5010582;28;45496;-67
2022/02/09 19:06:46;;;;;;;;;26.75;22.00;;;;;11.23;59.86;102072.47;5012359;28;45667;-62
2022/02/09 19:14:32;;;;;;;;;20.25;19.25;;;;;11.14;60.25;102063.16;5009582;28;45889;-63
2022/02/09 19:17:03;;;;;;;;;29.50;23.25;;;;;11.13;60.85;102065.81;5013136;28;45503;-63
2022/02/09 19:30:42;;;;;;;;;29.75;20.50;;;;;10.97;61.45;102054.19;5012994;28;45488;-65
2022/02/09 19:57:23;;;;;;;;;43.25;35.25;;;;;10.59;63.40;102049.50;5009847;28;45388;-60
2022/02/09 19:59:50;;;;;;;;;48.75;38.75;;;;;10.56;63.19;102056.66;5009561;28;45506;-61
2022/02/09 20:02:18;;;;;;;;;48.00;40.00;;;;;10.51;63.37;102051.56;5013013;28;45532;-60
2022/02/09 20:04:43;;;;;;;;;44.00;37.25;;;;;10.48;63.47;102045.53;5008909;28;45492;-61
2022/02/09 20:07:09;;;;;;;;;55.50;42.25;;;;;10.44;63.81;102047.47;5011121;28;45407;-60
2022/02/09 20:09:35;;;;;;;;;52.00;41.25;;;;;10.41;63.96;102044.91;5011627;28;45531;-62
2022/02/09 20:12:01;;;;;;;;;47.25;37.50;;;;;10.38;63.83;102046.81;5011222;28;45356;-61
2022/02/09 20:14:28;;;;;;;;;56.00;42.75;;;;;10.32;64.17;102045.25;5010040;28;45991;-60
2022/02/09 20:16:54;;;;;;;;;51.50;40.00;;;;;10.28;64.01;102047.16;5011469;28;45457;-60
2022/02/09 20:19:19;;;;;;;;;53.50;41.00;;;;;10.25;64.11;102046.41;5009859;28;45439;-60
2022/02/09 20:21:45;;;;;;;;;52.25;39.75;;;;;10.19;63.99;102031.69;5011023;28;45411;-61
2022/02/09 20:24:14;;;;;;;;;56.75;40.00;;;;;10.16;64.45;102034.41;5008281;28;45455;-59
2022/02/09 20:26:41;;;;;;;;;51.00;39.75;;;;;10.11;64.10;102038.13;5009900;28;45447;-60
2022/02/09 20:29:41;;;;;;;;;42.50;37.75;;;;;10.10;64.70;102049.56;5010957;28;45544;-63
2022/02/09 20:32:14;;;;;;;;;44.50;38.25;;;;;10.05;64.77;102044.47;5008414;28;45553;-59
2022/02/09 20:34:51;;;;;;;;;48.75;38.00;;;;;10.01;64.63;102038.44;5011554;28;46134;-61
2022/02/09 20:37:17;;;;;;;;;52.50;40.00;;;;;9.99;65.03;102037.66;5010325;28;45408;-61
2022/02/09 20:39:54;;;;;;;;;112.00;96.00;;;;;9.97;64.72;102036.84;5006615;28;45515;-59
2022/02/09 20:42:21;;;;;;;;;93.00;77.00;;;;;9.93;65.25;102040.50;5007927;28;45845;-60
2022/02/09 20:44:55;;;;;;;;;63.75;49.00;;;;;9.91;64.88;102041.47;5008379;28;45361;-62
2022/02/09 20:47:43;;;;;;;;;59.25;46.25;;;;;9.85;65.43;102034.66;5127288;27;45469;-61
2022/02/09 20:50:09;;;;;;;;;61.75;49.00;;;;;9.84;65.42;102037.34;5104585;27;45464;-61
2022/02/09 20:52:35;;;;;;;;;58.50;44.75;;;;;9.79;65.57;102041.00;5106373;27;45390;-62
2022/02/09 20:55:01;;;;;;;;;57.25;44.75;;;;;9.78;65.26;102043.69;5105304;27;45472;-62
2022/02/09 20:57:29;;;;;;;;;55.00;41.00;;;;;9.75;65.22;102044.66;5102691;27;46023;-61
2022/02/09 21:00:03;;;;;;;;;46.25;36.75;;;;;9.74;65.38;102042.06;5100921;27;45333;-60
2022/02/09 21:05:34;;;;;;;;;53.50;40.50;;;;;9.68;66.03;102035.25;5101941;27;45373;-59
2022/02/09 21:10:47;;;;;;;;;53.75;43.75;;;;;9.62;66.01;102035.44;5105557;27;45254;-61
2022/02/09 21:13:25;;;;;;;;;58.25;42.00;;;;;9.61;66.45;102035.50;5104120;27;45386;-61
2022/02/09 21:44:55;;;;;;;;;56.00;44.00;;;;;9.29;67.71;102042.72;5098393;27;45508;-60
2022/02/09 21:52:59;;;;;;;;;54.75;43.00;;;;;9.18;68.56;102045.72;5119604;27;45421;-61
2022/02/09 21:58:33;;;;;;;;;56.00;43.00;;;;;9.11;68.89;102052.06;5117024;27;45814;-61
2022/02/09 22:20:36;;;;;;;;;59.75;44.75;;;;;8.56;69.52;102061.66;5105505;27;45430;-60
2022/02/09 22:23:37;;;;;;;;;56.50;43.25;;;;;8.54;69.72;102050.34;5105746;27;46228;-59
2022/02/09 22:28:46;;;;;;;;;58.00;44.25;;;;;8.57;69.86;102031.84;5102820;27;45448;-59
2022/02/09 22:55:07;;;;;;;;;53.50;42.75;;;;;8.76;68.73;102013.75;5110187;27;46228;-60
2022/02/09 22:57:45;;;;;;;;;52.25;40.50;;;;;8.78;68.86;101998.81;5112991;27;45355;-63
2022/02/09 23:06:50;;;;;;;;;53.75;43.00;;;;;8.88;68.67;101994.13;5104600;27;45469;-62
2022/02/09 23:14:19;;;;;;;;;52.75;37.25;;;;;8.84;68.88;101989.88;5107862;27;45661;-63
2022/02/09 23:57:50;;;;;;;;;59.50;43.00;;;;;9.02;68.96;101983.19;5104748;27;45886;-62
